createdAt,value
2018-03-16T00:02:00.016Z,42.83
2018-03-16T00:04:28.144Z,44.07
2018-03-16T00:06:56.275Z,45.80
2018-03-16T00:09:24.480Z,43.47
2018-03-16T00:11:52.611Z,45.17
2018-03-16T00:14:20.830Z,44.00
2018-03-16T00:16:50.104Z,44.30
2018-03-16T00:19:18.255Z,44.83
2018-03-16T00:21:46.418Z,45.80
2018-03-16T00:24:14.568Z,43.27
2018-03-16T00:26:43.364Z,46.17
2018-03-16T00:29:11.503Z,44.10
2018-03-16T00:31:39.722Z,44.70
2018-03-16T00:34:07.873Z,44.57
2018-03-16T00:36:36.092Z,46.73
2018-03-16T00:39:04.235Z,47.80
2018-03-16T00:41:32.355Z,46.70
2018-03-16T00:44:00.494Z,45.37
2018-03-16T00:46:28.659Z,44.10
2018-03-16T00:48:56.864Z,44.37
2018-03-16T00:51:25.014Z,46.40
2018-03-16T00:53:53.198Z,43.75
2018-03-16T00:56:21.351Z,45.97
2018-03-16T00:58:49.473Z,42.10
2018-03-16T01:01:17.709Z,43.40
2018-03-16T01:03:45.874Z,45.83
2018-03-16T01:06:14.003Z,43.13
2018-03-16T01:08:48.254Z,43.07
2018-03-16T01:11:16.391Z,45.47
2018-03-16T01:13:44.495Z,44.30
2018-03-16T01:16:12.684Z,46.37
2018-03-16T01:18:40.865Z,45.57
2018-03-16T01:21:09.075Z,42.00
2018-03-16T01:23:37.212Z,42.50
2018-03-16T01:26:05.804Z,43.40
2018-03-16T01:28:33.976Z,40.63
2018-03-16T01:31:02.203Z,44.53
2018-03-16T01:33:30.522Z,43.50
2018-03-16T01:35:58.679Z,44.50
2018-03-16T01:38:26.805Z,43.70
2018-03-16T01:40:54.952Z,45.57
2018-03-16T01:43:23.117Z,46.35
2018-03-16T01:45:51.276Z,45.83
2018-03-16T01:48:19.488Z,44.57
2018-03-16T01:50:48.526Z,44.67
2018-03-16T01:53:17.610Z,42.70
2018-03-16T01:55:45.791Z,42.70
2018-03-16T01:58:14.029Z,44.97
2018-03-16T02:00:42.185Z,46.27
2018-03-16T02:03:10.360Z,44.90
2018-03-16T02:05:38.540Z,44.03
2018-03-16T02:08:06.750Z,43.60
2018-03-16T02:10:34.899Z,47.57
2018-03-16T02:13:03.062Z,44.57
2018-03-16T02:15:31.284Z,45.47
2018-03-16T02:17:59.440Z,45.70
2018-03-16T02:20:27.599Z,44.27
2018-03-16T02:22:55.727Z,44.50
2018-03-16T02:25:23.855Z,48.22
2018-03-16T02:27:51.981Z,45.97
2018-03-16T02:30:20.149Z,46.77
2018-03-16T02:32:48.264Z,47.27
2018-03-16T02:35:16.433Z,48.27
2018-03-16T02:37:44.632Z,48.87
2018-03-16T02:40:12.780Z,49.67
2018-03-16T02:42:41.107Z,46.30
2018-03-16T02:45:10.214Z,45.58
2018-03-16T02:47:38.355Z,47.07
2018-03-16T02:50:06.478Z,46.70
2018-03-16T02:52:34.667Z,48.90
2018-03-16T02:55:02.848Z,49.93
2018-03-16T02:57:30.979Z,46.63
2018-03-16T02:59:59.128Z,49.27
2018-03-16T03:02:27.264Z,47.80
2018-03-16T03:04:55.391Z,50.90
2018-03-16T03:07:23.527Z,51.40
2018-03-16T03:09:51.654Z,51.50
2018-03-16T03:12:19.825Z,50.80
2018-03-16T03:14:47.953Z,55.00
2018-03-16T03:17:16.099Z,50.83
2018-03-16T03:19:45.631Z,52.50
2018-03-16T03:22:13.790Z,51.10
2018-03-16T03:24:41.914Z,52.30
2018-03-16T03:27:10.518Z,53.53
2018-03-16T03:29:38.653Z,52.87
2018-03-16T03:32:06.797Z,54.30
2018-03-16T03:34:34.939Z,54.03
2018-03-16T03:37:03.083Z,54.57
2018-03-16T03:39:31.249Z,54.17
2018-03-16T03:41:59.383Z,54.67
2018-03-16T03:44:27.530Z,52.40
2018-03-16T03:46:55.667Z,54.20
2018-03-16T03:49:23.786Z,50.90
2018-03-16T03:51:51.928Z,54.23
2018-03-16T03:54:20.062Z,55.60
2018-03-16T03:56:48.199Z,54.10
2018-03-16T03:59:16.346Z,54.57
2018-03-16T04:01:44.603Z,52.77
2018-03-16T04:04:12.746Z,52.50
2018-03-16T04:06:40.865Z,53.60
2018-03-16T04:09:09.244Z,53.70
2018-03-16T04:11:37.361Z,52.00
2018-03-16T04:14:05.514Z,55.87
2018-03-16T04:16:33.646Z,56.30
2018-03-16T04:19:01.786Z,53.63
2018-03-16T04:21:29.925Z,55.20
2018-03-16T04:23:58.047Z,53.25
2018-03-16T04:26:26.186Z,55.10
2018-03-16T04:28:54.341Z,55.20
2018-03-16T04:31:22.490Z,56.60
2018-03-16T04:33:50.623Z,54.53
2018-03-16T04:36:18.771Z,54.40
2018-03-16T04:38:47.378Z,56.90
2018-03-16T04:41:15.506Z,55.83
2018-03-16T04:43:43.636Z,54.57
2018-03-16T04:46:11.841Z,57.20
2018-03-16T04:48:39.980Z,56.60
2018-03-16T04:51:08.149Z,56.73
2018-03-16T04:53:36.294Z,58.30
2018-03-16T04:56:04.471Z,56.37
2018-03-16T04:58:32.611Z,57.70
2018-03-16T05:01:00.766Z,55.70
2018-03-16T05:03:28.902Z,55.00
2018-03-16T05:05:57.042Z,58.57
2018-03-16T05:08:25.201Z,57.27
2018-03-16T05:10:54.300Z,60.43
2018-03-16T05:13:22.443Z,54.97
2018-03-16T05:15:50.572Z,56.73
2018-03-16T05:18:18.710Z,56.90
2018-03-16T05:20:46.842Z,58.63
2018-03-16T05:23:14.976Z,59.20
2018-03-16T05:25:43.098Z,59.17
2018-03-16T05:28:11.260Z,68.63
2018-03-16T05:30:39.587Z,63.63
2018-03-16T05:33:07.724Z,57.53
2018-03-16T05:35:35.862Z,56.87
2018-03-16T05:38:04.005Z,58.30
2018-03-16T05:40:32.131Z,60.70
2018-03-16T05:43:00.275Z,57.03
2018-03-16T05:45:28.415Z,58.13
2018-03-16T05:47:56.549Z,60.33
2018-03-16T05:50:24.696Z,58.50
2018-03-16T05:52:52.820Z,59.50
2018-03-16T05:55:20.990Z,60.03
2018-03-16T05:57:49.124Z,61.43
2018-03-16T06:00:17.253Z,60.93
2018-03-16T06:02:45.427Z,59.80
2018-03-16T06:05:13.559Z,60.30
2018-03-16T06:07:41.744Z,57.53
2018-03-16T06:10:09.890Z,60.27
2018-03-16T06:12:38.024Z,57.17
2018-03-16T06:15:06.262Z,57.20
2018-03-16T06:17:34.392Z,57.50
2018-03-16T06:20:02.621Z,57.53
2018-03-16T06:22:31.466Z,60.12
2018-03-16T06:24:59.604Z,57.92
2018-03-16T06:27:27.749Z,58.00
2018-03-16T06:29:55.881Z,60.30
2018-03-16T06:32:24.075Z,59.25
2018-03-16T06:34:52.382Z,60.70
2018-03-16T06:37:21.041Z,59.13
2018-03-16T06:39:49.172Z,58.13
2018-03-16T06:42:17.308Z,62.87
2018-03-16T06:44:45.590Z,62.97
2018-03-16T06:47:13.584Z,63.10
2018-03-16T06:49:41.741Z,61.10
2018-03-16T06:52:09.901Z,63.40
2018-03-16T06:54:38.031Z,61.17
2018-03-16T06:57:06.179Z,61.17
2018-03-16T06:59:34.320Z,63.77
2018-03-16T07:02:02.457Z,65.93
2018-03-16T07:04:30.606Z,64.70
2018-03-16T07:06:58.744Z,64.20
2018-03-16T07:09:27.004Z,61.93
2018-03-16T07:11:55.144Z,65.27
2018-03-16T07:14:23.279Z,62.03
2018-03-16T07:16:51.415Z,62.67
2018-03-16T07:19:19.561Z,61.57
2018-03-16T07:21:47.703Z,61.57
2018-03-16T07:24:15.842Z,62.77
2018-03-16T07:26:43.974Z,65.10
2018-03-16T07:29:12.115Z,65.10
2018-03-16T07:31:40.250Z,66.00
2018-03-16T07:34:08.404Z,63.97
2018-03-16T07:36:36.552Z,63.00
2018-03-16T07:39:04.711Z,63.40
2018-03-16T07:41:32.855Z,63.07
2018-03-16T07:44:00.999Z,67.22
2018-03-16T07:46:29.139Z,66.97
2018-03-16T07:48:57.288Z,64.30
2018-03-16T07:51:25.406Z,70.37
2018-03-16T07:53:53.532Z,64.33
2018-03-16T07:56:21.675Z,66.20
2018-03-16T07:58:49.820Z,66.83
2018-03-16T08:01:17.955Z,67.40
2018-03-16T08:03:46.092Z,66.60
2018-03-16T08:06:14.232Z,70.40
2018-03-16T08:08:42.374Z,70.53
2018-03-16T08:11:10.807Z,69.35
2018-03-16T08:13:39.017Z,68.53
2018-03-16T08:16:07.155Z,66.80
2018-03-16T08:18:35.296Z,64.80
2018-03-16T08:21:03.515Z,65.60
2018-03-16T08:23:31.644Z,68.30
2018-03-16T08:25:59.774Z,67.23
2018-03-16T08:28:27.895Z,63.30
2018-03-16T08:30:56.027Z,62.60
2018-03-16T08:33:25.223Z,63.58
2018-03-16T08:35:53.343Z,64.97
2018-03-16T08:38:21.472Z,62.73
2018-03-16T08:40:49.608Z,60.83
2018-03-16T08:43:17.737Z,57.67
2018-03-16T08:45:46.012Z,55.97
2018-03-16T08:48:14.155Z,59.80
2018-03-16T08:50:42.319Z,55.57
2018-03-16T08:53:10.423Z,59.80
2018-03-16T08:55:38.567Z,60.10
2018-03-16T08:58:06.699Z,59.17
2018-03-16T09:00:34.889Z,61.47
2018-03-16T09:03:03.012Z,64.10
2018-03-16T09:05:31.144Z,63.17
2018-03-16T09:07:59.281Z,60.30
2018-03-16T09:10:27.419Z,60.07
2018-03-16T09:12:55.570Z,57.40
2018-03-16T09:15:23.705Z,57.90
2018-03-16T09:17:51.838Z,57.53
2018-03-16T09:20:19.968Z,54.37
2018-03-16T09:22:48.098Z,59.10
2018-03-16T09:25:16.235Z,55.67
2018-03-16T09:27:44.355Z,54.27
2018-03-16T09:30:12.491Z,54.57
2018-03-16T09:32:40.624Z,51.30
2018-03-16T09:35:08.752Z,51.10
2018-03-16T09:37:36.888Z,54.43
2018-03-16T09:40:05.011Z,49.67
2018-03-16T09:42:33.146Z,49.23
2018-03-16T09:45:01.269Z,45.63
2018-03-16T09:47:29.407Z,48.40
2018-03-16T09:49:57.531Z,47.63
2018-03-16T09:52:25.668Z,48.57
2018-03-16T09:55:05.464Z,49.70
2018-03-16T09:57:33.593Z,46.67
2018-03-16T10:00:01.720Z,46.30
2018-03-16T10:02:29.850Z,46.57
2018-03-16T10:04:57.980Z,43.87
2018-03-16T10:07:26.102Z,44.35
2018-03-16T10:09:54.265Z,40.77
2018-03-16T10:12:22.381Z,40.77
2018-03-16T10:14:50.521Z,39.20
2018-03-16T10:17:18.647Z,39.92
2018-03-16T10:19:46.768Z,39.97
2018-03-16T10:22:14.899Z,38.80
2018-03-16T10:24:43.038Z,37.73
2018-03-16T10:27:11.207Z,41.30
2018-03-16T10:29:42.265Z,42.90
2018-03-16T10:32:10.412Z,40.27
2018-03-16T10:34:38.569Z,38.33
2018-03-16T10:37:06.818Z,40.73
2018-03-16T10:39:35.176Z,40.20
2018-03-16T10:42:03.326Z,38.57
2018-03-16T10:44:31.456Z,35.17
2018-03-16T10:46:59.596Z,38.10
2018-03-16T10:49:27.726Z,36.83
2018-03-16T10:51:55.867Z,35.10
2018-03-16T10:54:24.008Z,35.10
2018-03-16T10:56:52.130Z,37.07
2018-03-16T10:59:20.266Z,35.50
2018-03-16T11:01:54.056Z,34.87
2018-03-16T11:04:27.659Z,35.60
2018-03-16T11:07:01.511Z,33.20
2018-03-16T11:09:40.250Z,28.37
2018-03-16T11:12:08.384Z,25.53
2018-03-16T11:14:36.518Z,24.83
2018-03-16T11:17:04.642Z,27.37
2018-03-16T11:19:32.788Z,26.20
2018-03-16T11:22:00.915Z,25.97
2018-03-16T11:24:29.041Z,25.13
2018-03-16T11:26:57.177Z,25.90
2018-03-16T11:29:25.312Z,24.35
2018-03-16T11:31:53.437Z,23.77
2018-03-16T11:34:21.557Z,25.80
2018-03-16T11:36:49.708Z,24.33
2018-03-16T11:39:17.840Z,24.83
2018-03-16T11:41:45.968Z,23.60
2018-03-16T11:44:14.110Z,23.83
2018-03-16T11:46:42.244Z,24.25
2018-03-16T11:49:10.471Z,23.40
2018-03-16T11:51:38.558Z,22.50
2018-03-16T11:54:06.701Z,22.90
2018-03-16T11:56:34.851Z,21.00
2018-03-16T11:59:03.005Z,20.20
2018-03-16T12:01:31.160Z,21.43
2018-03-16T12:03:59.355Z,20.30
2018-03-16T12:06:27.517Z,19.27
2018-03-16T12:08:55.684Z,16.30
2018-03-16T12:11:23.800Z,18.60
2018-03-16T12:13:51.945Z,18.60
2018-03-16T12:16:20.075Z,19.47
2018-03-16T12:18:48.226Z,18.57
2018-03-16T12:21:16.376Z,19.33
2018-03-16T12:23:47.529Z,19.03
2018-03-16T12:26:15.664Z,16.73
2018-03-16T12:28:49.815Z,14.20
2018-03-16T12:31:12.044Z,14.07
2018-03-16T12:33:40.198Z,13.07
2018-03-16T12:36:08.341Z,11.30
2018-03-16T12:38:36.564Z,11.37
2018-03-16T12:41:04.705Z,11.50
2018-03-16T12:43:32.879Z,11.60
2018-03-16T12:46:01.043Z,11.03
2018-03-16T12:48:29.676Z,10.63
2018-03-16T12:50:57.810Z,10.03
2018-03-16T12:53:26.009Z,9.68
2018-03-16T12:55:54.110Z,9.93
2018-03-16T12:58:22.256Z,12.63
2018-03-16T13:00:50.396Z,11.57
2018-03-16T13:03:18.565Z,11.43
2018-03-16T13:05:46.703Z,9.63
2018-03-16T13:08:14.901Z,11.20
2018-03-16T13:10:43.099Z,11.10
2018-03-16T13:13:11.291Z,11.77
2018-03-16T13:15:39.480Z,13.20
2018-03-16T13:18:07.639Z,11.27
2018-03-16T13:20:35.797Z,11.07
2018-03-16T13:23:04.015Z,10.53
2018-03-16T13:25:32.187Z,13.10
2018-03-16T13:28:00.419Z,10.70
2018-03-16T13:30:28.548Z,11.30
2018-03-16T13:32:56.745Z,11.23
2018-03-16T13:35:24.864Z,11.40
2018-03-16T13:37:53.015Z,12.00
2018-03-16T13:40:21.196Z,11.37
2018-03-16T13:42:49.344Z,10.17
2018-03-16T13:45:17.577Z,10.35
2018-03-16T13:47:45.710Z,10.10
2018-03-16T13:50:13.867Z,9.70
2018-03-16T13:52:42.061Z,8.80
2018-03-16T13:55:10.194Z,8.50
2018-03-16T13:57:38.342Z,8.47
2018-03-16T14:00:17.385Z,8.07
2018-03-16T14:02:45.542Z,7.60
2018-03-16T14:05:13.720Z,7.20
2018-03-16T14:07:41.862Z,7.27
2018-03-16T14:10:10.138Z,7.40
2018-03-16T14:12:38.293Z,6.30
2018-03-16T14:15:06.501Z,6.53
2018-03-16T14:17:34.701Z,5.70
2018-03-16T14:20:02.833Z,5.50
2018-03-16T14:22:30.965Z,5.50
2018-03-16T14:24:59.101Z,5.63
2018-03-16T14:27:27.304Z,5.77
2018-03-16T14:29:55.451Z,5.70
2018-03-16T14:32:23.584Z,5.43
2018-03-16T14:34:51.728Z,5.40
2018-03-16T14:37:19.878Z,6.15
2018-03-16T14:39:48.010Z,5.80
2018-03-16T14:42:16.173Z,5.77
2018-03-16T14:44:44.311Z,6.37
2018-03-16T14:47:12.439Z,6.17
2018-03-16T14:49:40.601Z,6.70
2018-03-16T14:52:08.769Z,6.07
2018-03-16T14:54:36.890Z,6.20
2018-03-16T14:57:05.045Z,5.83
2018-03-16T14:59:33.217Z,6.80
2018-03-16T15:02:01.360Z,6.17
2018-03-16T15:04:31.695Z,6.83
2018-03-16T15:06:59.825Z,7.43
2018-03-16T15:09:27.957Z,6.60
2018-03-16T15:11:56.129Z,8.23
2018-03-16T15:14:24.273Z,7.40
2018-03-16T15:16:52.412Z,7.15
2018-03-16T15:19:20.572Z,6.50
2018-03-16T15:21:48.742Z,7.30
2018-03-16T15:24:16.924Z,7.17
2018-03-16T15:26:45.064Z,6.57
2018-03-16T15:29:13.202Z,6.20
2018-03-16T15:31:41.380Z,6.87
2018-03-16T15:34:09.503Z,6.67
2018-03-16T15:36:37.639Z,6.77
2018-03-16T15:39:05.851Z,7.00
2018-03-16T15:41:34.053Z,6.70
2018-03-16T15:44:02.216Z,7.40
2018-03-16T15:46:30.340Z,7.03
2018-03-16T15:48:58.508Z,6.87
2018-03-16T15:51:26.620Z,6.53
2018-03-16T15:53:54.820Z,6.50
2018-03-16T15:56:22.937Z,6.90
2018-03-16T15:58:51.091Z,6.80
2018-03-16T16:01:19.231Z,7.73
2018-03-16T16:03:47.373Z,6.83
2018-03-16T16:06:15.515Z,8.30
2018-03-16T16:08:43.688Z,8.27
2018-03-16T16:11:11.838Z,7.60
2018-03-16T16:13:39.964Z,7.53
2018-03-16T16:16:08.104Z,7.87
2018-03-16T16:18:36.267Z,7.70
2018-03-16T16:21:04.401Z,7.67
2018-03-16T16:23:34.361Z,7.70
2018-03-16T16:26:02.509Z,8.27
2018-03-16T16:28:30.635Z,7.10
2018-03-16T16:30:58.809Z,8.03
2018-03-16T16:33:26.983Z,7.25
2018-03-16T16:35:55.175Z,6.27
2018-03-16T16:38:23.366Z,7.37
2018-03-16T16:40:51.500Z,7.63
2018-03-16T16:43:19.649Z,9.40
2018-03-16T16:45:47.761Z,6.23
2018-03-16T16:48:15.877Z,6.13
2018-03-16T16:50:44.021Z,6.57
2018-03-16T16:53:12.149Z,6.77
2018-03-16T16:55:40.280Z,7.03
2018-03-16T16:58:08.400Z,7.43
2018-03-16T17:00:36.544Z,7.57
2018-03-16T17:03:04.682Z,8.30
2018-03-16T17:05:32.847Z,8.27
2018-03-16T17:08:00.961Z,8.20
2018-03-16T17:10:29.085Z,9.03
2018-03-16T17:12:57.213Z,8.57
2018-03-16T17:15:25.321Z,5.27
2018-03-16T17:17:53.450Z,3.90
2018-03-16T17:20:21.574Z,2.50
2018-03-16T17:22:49.736Z,2.43
2018-03-16T17:25:17.860Z,2.70
2018-03-16T17:27:46.104Z,2.60
2018-03-16T17:30:14.217Z,3.07
2018-03-16T17:32:42.402Z,3.47
2018-03-16T17:35:10.927Z,3.15
2018-03-16T17:37:39.043Z,2.77
2018-03-16T17:40:07.344Z,2.87
2018-03-16T17:42:35.526Z,5.00
2018-03-16T17:45:03.628Z,4.47
2018-03-16T17:47:31.760Z,4.00
2018-03-16T17:49:59.894Z,4.60
2018-03-16T17:52:28.026Z,4.03
2018-03-16T17:54:56.140Z,3.87
2018-03-16T17:57:24.276Z,3.50
2018-03-16T17:59:52.405Z,4.20
2018-03-16T18:02:20.535Z,5.17
2018-03-16T18:04:48.653Z,5.00
2018-03-16T18:07:16.795Z,4.93
2018-03-16T18:09:44.908Z,3.80
2018-03-16T18:12:13.040Z,4.17
2018-03-16T18:14:41.222Z,4.33
2018-03-16T18:17:09.310Z,4.80
2018-03-16T18:19:37.426Z,3.60
2018-03-16T18:22:05.541Z,5.40
2018-03-16T18:24:33.655Z,6.00
2018-03-16T18:27:01.774Z,5.57
2018-03-16T18:29:30.599Z,6.77
2018-03-16T18:31:58.727Z,8.80
2018-03-16T18:34:26.860Z,7.53
2018-03-16T18:36:54.972Z,5.10
2018-03-16T18:39:23.096Z,6.00
2018-03-16T18:41:51.224Z,6.07
2018-03-16T18:44:19.339Z,5.60
2018-03-16T18:46:47.455Z,5.30
2018-03-16T18:49:15.579Z,6.00
2018-03-16T18:51:43.689Z,6.67
2018-03-16T18:54:11.813Z,6.65
2018-03-16T18:56:39.928Z,5.97
2018-03-16T18:59:08.057Z,4.90
2018-03-16T19:01:36.178Z,4.67
2018-03-16T19:04:04.406Z,4.83
2018-03-16T19:06:32.538Z,5.27
2018-03-16T19:09:00.680Z,4.93
2018-03-16T19:11:28.801Z,5.20
2018-03-16T19:13:56.917Z,4.50
2018-03-16T19:16:25.029Z,4.20
2018-03-16T19:18:53.177Z,5.57
2018-03-16T19:21:21.303Z,6.28
2018-03-16T19:23:49.452Z,5.80
2018-03-16T19:26:17.564Z,5.17
2018-03-16T19:28:45.702Z,5.77
2018-03-16T19:31:13.826Z,5.03
2018-03-16T19:33:41.945Z,5.90
2018-03-16T19:36:10.077Z,5.63
2018-03-16T19:38:38.237Z,5.47
2018-03-16T19:41:06.401Z,5.63
2018-03-16T19:43:34.541Z,6.13
2018-03-16T19:46:02.665Z,5.67
2018-03-16T19:48:30.806Z,6.05
2018-03-16T19:50:58.946Z,7.00
2018-03-16T19:53:27.100Z,7.30
2018-03-16T19:55:55.269Z,9.80
2018-03-16T19:58:23.411Z,10.97
2018-03-16T20:00:51.693Z,7.70
2018-03-16T20:03:20.267Z,7.90
2018-03-16T20:05:48.413Z,8.30
2018-03-16T20:08:16.564Z,7.27
2018-03-16T20:10:44.704Z,7.28
2018-03-16T20:13:12.822Z,10.70
2018-03-16T20:15:40.970Z,9.40
2018-03-16T20:18:09.605Z,8.37
2018-03-16T20:20:37.756Z,9.13
2018-03-16T20:23:05.944Z,9.30
2018-03-16T20:25:34.073Z,7.93
2018-03-16T20:28:02.231Z,8.70
2018-03-16T20:30:30.354Z,10.87
2018-03-16T20:32:58.499Z,11.30
2018-03-16T20:35:26.648Z,10.37
2018-03-16T20:37:54.805Z,13.30
2018-03-16T20:40:22.946Z,14.97
2018-03-16T20:42:51.092Z,13.47
2018-03-16T20:45:19.232Z,12.00
2018-03-16T20:47:47.365Z,12.63
2018-03-16T20:50:15.519Z,13.27
2018-03-16T20:52:43.663Z,12.97
2018-03-16T20:55:11.783Z,12.63
2018-03-16T20:57:39.903Z,12.05
2018-03-16T21:00:08.050Z,12.23
2018-03-16T21:02:36.181Z,12.87
2018-03-16T21:05:04.317Z,13.30
2018-03-16T21:07:33.166Z,13.80
2018-03-16T21:10:01.885Z,14.17
2018-03-16T21:12:30.039Z,13.63
2018-03-16T21:14:58.171Z,13.43
2018-03-16T21:17:26.316Z,13.23
2018-03-16T21:19:54.450Z,13.97
2018-03-16T21:22:22.599Z,12.30
2018-03-16T21:24:50.735Z,12.87
2018-03-16T21:27:18.868Z,16.53
2018-03-16T21:29:46.998Z,15.67
2018-03-16T21:32:15.202Z,18.73
2018-03-16T21:34:43.326Z,17.93
2018-03-16T21:37:11.476Z,15.00
2018-03-16T21:39:39.674Z,15.73
2018-03-16T21:42:07.795Z,14.20
2018-03-16T21:44:35.950Z,13.10
2018-03-16T21:47:04.095Z,13.70
2018-03-16T21:49:32.325Z,12.60
2018-03-16T21:52:00.489Z,13.50
2018-03-16T21:54:28.664Z,12.60
2018-03-16T21:56:56.792Z,14.00
2018-03-16T21:59:24.920Z,14.47
2018-03-16T22:01:53.073Z,16.40
2018-03-16T22:04:21.188Z,15.75
2018-03-16T22:06:49.375Z,16.60
2018-03-16T22:09:17.523Z,16.45
2018-03-16T22:11:45.655Z,16.30
2018-03-16T22:14:13.789Z,15.43
2018-03-16T22:16:41.945Z,16.70
2018-03-16T22:19:10.704Z,14.97
2018-03-16T22:21:38.844Z,14.30
2018-03-16T22:24:06.978Z,15.50
2018-03-16T22:26:35.096Z,15.60
2018-03-16T22:29:03.224Z,15.10
2018-03-16T22:31:31.351Z,15.70
2018-03-16T22:33:59.481Z,16.37
2018-03-16T22:36:27.593Z,15.50
2018-03-16T22:38:55.729Z,14.60
2018-03-16T22:41:23.860Z,14.68
2018-03-16T22:43:51.992Z,14.20
2018-03-16T22:46:20.123Z,14.50
2018-03-16T22:48:48.244Z,13.33
2018-03-16T22:51:16.374Z,12.80
2018-03-16T22:53:44.540Z,12.63
2018-03-16T22:56:12.668Z,11.77
2018-03-16T22:58:40.805Z,12.87
2018-03-16T23:01:08.945Z,11.90
2018-03-16T23:03:37.101Z,11.00
2018-03-16T23:06:05.231Z,11.57
2018-03-16T23:08:33.367Z,10.63
2018-03-16T23:11:01.510Z,10.70
2018-03-16T23:13:29.640Z,10.57
2018-03-16T23:15:57.807Z,10.57
2018-03-16T23:18:25.924Z,10.90
2018-03-16T23:20:54.078Z,11.00
2018-03-16T23:23:22.209Z,11.03
2018-03-16T23:25:50.335Z,11.33
2018-03-16T23:28:18.463Z,11.50
2018-03-16T23:30:46.599Z,11.07
2018-03-16T23:33:14.724Z,12.20
2018-03-16T23:35:42.855Z,11.50
2018-03-16T23:38:11.004Z,11.60
2018-03-16T23:40:39.137Z,12.83
2018-03-16T23:43:07.350Z,13.60
2018-03-16T23:45:35.476Z,13.30
2018-03-16T23:48:03.612Z,12.80
2018-03-16T23:50:31.744Z,14.00
2018-03-16T23:52:59.878Z,14.37
2018-03-16T23:55:28.091Z,15.13
2018-03-16T23:57:56.369Z,17.50
